sensor_id;sensor_type;location;lat;lon;timestamp;P1;durP1;ratioP1;P2;durP2;ratioP2
36391;SDS011;22639;42.690;23.356;2023-06-14T00:00:09;8.82;;;6.80;;
36391;SDS011;22639;42.690;23.356;2023-06-14T00:02:34;9.07;;;6.90;;
36391;SDS011;22639;42.690;23.356;2023-06-14T00:04:59;8.57;;;6.72;;
36391;SDS011;22639;42.690;23.356;2023-06-14T00:07:38;9.07;;;6.90;;
36391;SDS011;22639;42.690;23.356;2023-06-14T00:10:07;9.75;;;6.60;;
36391;SDS011;22639;42.690;23.356;2023-06-14T00:12:32;14.10;;;6.65;;
36391;SDS011;22639;42.690;23.356;2023-06-14T00:14:57;7.88;;;6.15;;
36391;SDS011;22639;42.690;23.356;2023-06-14T00:17:23;6.65;;;5.82;;
36391;SDS011;22639;42.690;23.356;2023-06-14T00:19:48;7.50;;;5.53;;
36391;SDS011;22639;42.690;23.356;2023-06-14T00:22:14;7.28;;;5.95;;
36391;SDS011;22639;42.690;23.356;2023-06-14T00:24:39;8.25;;;6.22;;
36391;SDS011;22639;42.690;23.356;2023-06-14T00:27:05;6.72;;;5.70;;
36391;SDS011;22639;42.690;23.356;2023-06-14T00:29:30;6.32;;;5.50;;
36391;SDS011;22639;42.690;23.356;2023-06-14T00:31:55;6.93;;;5.57;;
36391;SDS011;22639;42.690;23.356;2023-06-14T00:34:20;6.70;;;5.93;;
36391;SDS011;22639;42.690;23.356;2023-06-14T00:36:46;7.13;;;5.72;;
36391;SDS011;22639;42.690;23.356;2023-06-14T00:39:11;7.55;;;5.20;;
36391;SDS011;22639;42.690;23.356;2023-06-14T00:41:37;10.48;;;6.00;;
36391;SDS011;22639;42.690;23.356;2023-06-14T00:44:02;6.95;;;4.93;;
36391;SDS011;22639;42.690;23.356;2023-06-14T00:46:28;7.22;;;6.18;;
36391;SDS011;22639;42.690;23.356;2023-06-14T00:50:43;7.20;;;5.93;;
36391;SDS011;22639;42.690;23.356;2023-06-14T00:53:11;11.88;;;6.32;;
36391;SDS011;22639;42.690;23.356;2023-06-14T00:55:36;9.43;;;6.80;;
36391;SDS011;22639;42.690;23.356;2023-06-14T00:58:01;9.77;;;6.30;;
36391;SDS011;22639;42.690;23.356;2023-06-14T01:00:26;6.45;;;5.75;;
36391;SDS011;22639;42.690;23.356;2023-06-14T01:02:53;7.88;;;6.40;;
36391;SDS011;22639;42.690;23.356;2023-06-14T01:05:20;6.50;;;5.60;;
36391;SDS011;22639;42.690;23.356;2023-06-14T01:15:25;7.50;;;6.38;;
36391;SDS011;22639;42.690;23.356;2023-06-14T01:17:51;7.82;;;6.15;;
36391;SDS011;22639;42.690;23.356;2023-06-14T01:20:19;12.23;;;5.72;;
36391;SDS011;22639;42.690;23.356;2023-06-14T01:23:03;6.95;;;5.68;;
36391;SDS011;22639;42.690;23.356;2023-06-14T01:25:28;7.32;;;6.47;;
36391;SDS011;22639;42.690;23.356;2023-06-14T01:28:03;7.90;;;5.93;;
36391;SDS011;22639;42.690;23.356;2023-06-14T01:30:29;9.80;;;6.88;;
36391;SDS011;22639;42.690;23.356;2023-06-14T01:32:54;6.70;;;5.50;;
36391;SDS011;22639;42.690;23.356;2023-06-14T01:35:21;7.97;;;5.82;;
36391;SDS011;22639;42.690;23.356;2023-06-14T01:37:47;6.72;;;6.07;;
36391;SDS011;22639;42.690;23.356;2023-06-14T01:40:13;7.60;;;6.15;;
36391;SDS011;22639;42.690;23.356;2023-06-14T01:42:39;7.28;;;6.57;;
36391;SDS011;22639;42.690;23.356;2023-06-14T01:45:05;6.88;;;6.28;;
36391;SDS011;22639;42.690;23.356;2023-06-14T01:47:31;6.55;;;5.95;;
36391;SDS011;22639;42.690;23.356;2023-06-14T01:49:56;8.57;;;6.50;;
36391;SDS011;22639;42.690;23.356;2023-06-14T01:52:22;8.57;;;6.38;;
36391;SDS011;22639;42.690;23.356;2023-06-14T01:54:49;7.55;;;6.18;;
36391;SDS011;22639;42.690;23.356;2023-06-14T01:57:14;8.15;;;6.13;;
36391;SDS011;22639;42.690;23.356;2023-06-14T01:59:40;7.88;;;7.07;;
36391;SDS011;22639;42.690;23.356;2023-06-14T02:02:05;11.80;;;6.78;;
36391;SDS011;22639;42.690;23.356;2023-06-14T02:04:30;9.95;;;6.25;;
36391;SDS011;22639;42.690;23.356;2023-06-14T02:06:56;8.65;;;6.38;;
36391;SDS011;22639;42.690;23.356;2023-06-14T02:09:21;6.85;;;6.15;;
36391;SDS011;22639;42.690;23.356;2023-06-14T02:11:46;7.93;;;6.80;;
36391;SDS011;22639;42.690;23.356;2023-06-14T02:14:11;9.27;;;6.90;;
36391;SDS011;22639;42.690;23.356;2023-06-14T02:16:37;11.02;;;7.28;;
36391;SDS011;22639;42.690;23.356;2023-06-14T02:19:03;12.45;;;6.93;;
36391;SDS011;22639;42.690;23.356;2023-06-14T02:21:29;8.55;;;7.40;;
36391;SDS011;22639;42.690;23.356;2023-06-14T02:23:54;11.70;;;7.22;;
36391;SDS011;22639;42.690;23.356;2023-06-14T02:26:19;8.75;;;7.40;;
36391;SDS011;22639;42.690;23.356;2023-06-14T02:28:44;10.75;;;6.55;;
36391;SDS011;22639;42.690;23.356;2023-06-14T02:31:10;9.52;;;7.03;;
36391;SDS011;22639;42.690;23.356;2023-06-14T02:33:35;8.90;;;7.75;;
36391;SDS011;22639;42.690;23.356;2023-06-14T02:36:01;10.27;;;8.02;;
36391;SDS011;22639;42.690;23.356;2023-06-14T02:38:28;9.35;;;7.68;;
36391;SDS011;22639;42.690;23.356;2023-06-14T02:40:53;8.65;;;7.10;;
36391;SDS011;22639;42.690;23.356;2023-06-14T02:43:18;10.30;;;7.10;;
36391;SDS011;22639;42.690;23.356;2023-06-14T02:45:44;7.95;;;7.15;;
36391;SDS011;22639;42.690;23.356;2023-06-14T02:48:10;12.25;;;7.47;;
36391;SDS011;22639;42.690;23.356;2023-06-14T02:50:36;8.25;;;7.25;;
36391;SDS011;22639;42.690;23.356;2023-06-14T02:53:01;9.13;;;7.63;;
36391;SDS011;22639;42.690;23.356;2023-06-14T02:55:27;13.98;;;7.15;;
36391;SDS011;22639;42.690;23.356;2023-06-14T02:57:53;11.65;;;7.60;;
36391;SDS011;22639;42.690;23.356;2023-06-14T03:00:18;10.70;;;7.70;;
36391;SDS011;22639;42.690;23.356;2023-06-14T03:02:44;11.52;;;7.72;;
36391;SDS011;22639;42.690;23.356;2023-06-14T03:05:10;10.90;;;6.60;;
36391;SDS011;22639;42.690;23.356;2023-06-14T03:07:35;10.63;;;7.70;;
36391;SDS011;22639;42.690;23.356;2023-06-14T03:10:06;10.63;;;8.77;;
36391;SDS011;22639;42.690;23.356;2023-06-14T03:12:32;10.98;;;8.20;;
36391;SDS011;22639;42.690;23.356;2023-06-14T03:14:57;9.63;;;8.02;;
36391;SDS011;22639;42.690;23.356;2023-06-14T03:17:26;11.00;;;7.93;;
36391;SDS011;22639;42.690;23.356;2023-06-14T03:19:55;8.63;;;7.63;;
36391;SDS011;22639;42.690;23.356;2023-06-14T03:22:20;9.10;;;7.43;;
36391;SDS011;22639;42.690;23.356;2023-06-14T03:24:46;9.93;;;7.70;;
36391;SDS011;22639;42.690;23.356;2023-06-14T03:27:12;12.52;;;8.75;;
36391;SDS011;22639;42.690;23.356;2023-06-14T03:29:37;11.73;;;9.63;;
36391;SDS011;22639;42.690;23.356;2023-06-14T03:32:03;9.85;;;8.70;;
36391;SDS011;22639;42.690;23.356;2023-06-14T03:34:28;9.70;;;8.65;;
36391;SDS011;22639;42.690;23.356;2023-06-14T03:36:54;11.63;;;9.40;;
36391;SDS011;22639;42.690;23.356;2023-06-14T03:39:19;9.32;;;8.30;;
36391;SDS011;22639;42.690;23.356;2023-06-14T03:41:45;12.93;;;8.32;;
36391;SDS011;22639;42.690;23.356;2023-06-14T03:44:10;8.60;;;7.57;;
36391;SDS011;22639;42.690;23.356;2023-06-14T03:46:35;10.52;;;7.93;;
36391;SDS011;22639;42.690;23.356;2023-06-14T03:49:00;7.95;;;6.88;;
36391;SDS011;22639;42.690;23.356;2023-06-14T03:51:27;12.35;;;8.32;;
36391;SDS011;22639;42.690;23.356;2023-06-14T03:53:53;8.88;;;7.78;;
36391;SDS011;22639;42.690;23.356;2023-06-14T03:56:19;8.57;;;7.50;;
36391;SDS011;22639;42.690;23.356;2023-06-14T03:58:44;13.70;;;7.03;;
36391;SDS011;22639;42.690;23.356;2023-06-14T04:01:09;8.38;;;7.47;;
36391;SDS011;22639;42.690;23.356;2023-06-14T04:03:37;12.48;;;8.23;;
36391;SDS011;22639;42.690;23.356;2023-06-14T04:06:02;9.80;;;8.32;;
36391;SDS011;22639;42.690;23.356;2023-06-14T04:08:28;10.32;;;8.35;;
36391;SDS011;22639;42.690;23.356;2023-06-14T04:10:53;9.93;;;7.90;;
36391;SDS011;22639;42.690;23.356;2023-06-14T04:13:18;12.20;;;7.60;;
36391;SDS011;22639;42.690;23.356;2023-06-14T04:15:44;10.07;;;7.65;;
36391;SDS011;22639;42.690;23.356;2023-06-14T04:18:10;10.40;;;7.38;;
36391;SDS011;22639;42.690;23.356;2023-06-14T04:20:36;11.13;;;8.13;;
36391;SDS011;22639;42.690;23.356;2023-06-14T04:23:11;9.75;;;7.18;;
36391;SDS011;22639;42.690;23.356;2023-06-14T04:25:37;8.13;;;7.03;;
36391;SDS011;22639;42.690;23.356;2023-06-14T04:28:02;8.75;;;7.80;;
36391;SDS011;22639;42.690;23.356;2023-06-14T04:30:28;8.07;;;7.28;;
36391;SDS011;22639;42.690;23.356;2023-06-14T04:32:56;8.00;;;6.38;;
36391;SDS011;22639;42.690;23.356;2023-06-14T04:35:21;8.02;;;7.20;;
36391;SDS011;22639;42.690;23.356;2023-06-14T04:37:48;8.35;;;5.95;;
36391;SDS011;22639;42.690;23.356;2023-06-14T04:40:14;6.55;;;5.95;;
36391;SDS011;22639;42.690;23.356;2023-06-14T04:42:39;6.43;;;5.82;;
36391;SDS011;22639;42.690;23.356;2023-06-14T04:45:05;9.77;;;6.20;;
36391;SDS011;22639;42.690;23.356;2023-06-14T04:47:32;11.05;;;7.50;;
36391;SDS011;22639;42.690;23.356;2023-06-14T04:49:57;7.57;;;6.78;;
36391;SDS011;22639;42.690;23.356;2023-06-14T04:52:22;8.48;;;6.38;;
36391;SDS011;22639;42.690;23.356;2023-06-14T04:54:51;11.63;;;7.78;;
36391;SDS011;22639;42.690;23.356;2023-06-14T04:57:17;8.68;;;7.30;;
36391;SDS011;22639;42.690;23.356;2023-06-14T04:59:47;10.60;;;7.65;;
36391;SDS011;22639;42.690;23.356;2023-06-14T05:02:12;10.50;;;8.23;;
36391;SDS011;22639;42.690;23.356;2023-06-14T05:04:37;10.70;;;8.88;;
36391;SDS011;22639;42.690;23.356;2023-06-14T05:07:06;14.00;;;8.80;;
36391;SDS011;22639;42.690;23.356;2023-06-14T05:09:32;11.02;;;8.75;;
36391;SDS011;22639;42.690;23.356;2023-06-14T05:11:58;9.13;;;8.05;;
36391;SDS011;22639;42.690;23.356;2023-06-14T05:14:25;9.85;;;8.00;;
36391;SDS011;22639;42.690;23.356;2023-06-14T05:16:50;9.52;;;8.52;;
36391;SDS011;22639;42.690;23.356;2023-06-14T05:19:16;14.18;;;9.52;;
36391;SDS011;22639;42.690;23.356;2023-06-14T05:21:43;13.75;;;12.35;;
36391;SDS011;22639;42.690;23.356;2023-06-14T05:24:08;10.90;;;9.80;;
36391;SDS011;22639;42.690;23.356;2023-06-14T05:26:34;15.73;;;9.75;;
36391;SDS011;22639;42.690;23.356;2023-06-14T05:29:00;10.98;;;8.95;;
36391;SDS011;22639;42.690;23.356;2023-06-14T05:31:26;12.32;;;8.50;;
36391;SDS011;22639;42.690;23.356;2023-06-14T05:33:52;9.70;;;8.68;;
36391;SDS011;22639;42.690;23.356;2023-06-14T05:36:18;13.27;;;8.90;;
36391;SDS011;22639;42.690;23.356;2023-06-14T05:38:44;10.52;;;9.32;;
36391;SDS011;22639;42.690;23.356;2023-06-14T05:41:10;10.25;;;8.98;;
36391;SDS011;22639;42.690;23.356;2023-06-14T05:43:35;12.57;;;9.27;;
36391;SDS011;22639;42.690;23.356;2023-06-14T05:46:00;12.25;;;10.02;;
36391;SDS011;22639;42.690;23.356;2023-06-14T05:48:26;9.80;;;8.80;;
36391;SDS011;22639;42.690;23.356;2023-06-14T05:50:51;13.68;;;10.75;;
36391;SDS011;22639;42.690;23.356;2023-06-14T05:53:16;9.57;;;8.57;;
36391;SDS011;22639;42.690;23.356;2023-06-14T05:55:42;10.52;;;9.43;;
36391;SDS011;22639;42.690;23.356;2023-06-14T05:58:07;15.30;;;10.30;;
36391;SDS011;22639;42.690;23.356;2023-06-14T06:00:32;11.80;;;9.45;;
36391;SDS011;22639;42.690;23.356;2023-06-14T06:02:58;23.63;;;18.25;;
36391;SDS011;22639;42.690;23.356;2023-06-14T06:05:24;19.48;;;17.40;;
36391;SDS011;22639;42.690;23.356;2023-06-14T06:07:49;18.45;;;13.27;;
36391;SDS011;22639;42.690;23.356;2023-06-14T06:10:16;16.33;;;12.35;;
36391;SDS011;22639;42.690;23.356;2023-06-14T06:12:41;13.90;;;11.70;;
36391;SDS011;22639;42.690;23.356;2023-06-14T06:15:07;19.05;;;11.63;;
36391;SDS011;22639;42.690;23.356;2023-06-14T06:17:32;13.25;;;9.68;;
36391;SDS011;22639;42.690;23.356;2023-06-14T06:19:58;12.02;;;10.18;;
36391;SDS011;22639;42.690;23.356;2023-06-14T06:22:24;12.15;;;10.52;;
36391;SDS011;22639;42.690;23.356;2023-06-14T06:24:50;11.55;;;10.35;;
36391;SDS011;22639;42.690;23.356;2023-06-14T06:27:15;13.43;;;10.55;;
36391;SDS011;22639;42.690;23.356;2023-06-14T06:29:41;10.63;;;9.52;;
36391;SDS011;22639;42.690;23.356;2023-06-14T06:32:07;12.70;;;9.85;;
36391;SDS011;22639;42.690;23.356;2023-06-14T06:34:32;11.68;;;10.20;;
36391;SDS011;22639;42.690;23.356;2023-06-14T06:36:57;12.00;;;10.48;;
36391;SDS011;22639;42.690;23.356;2023-06-14T06:39:22;15.15;;;11.07;;
36391;SDS011;22639;42.690;23.356;2023-06-14T06:41:48;13.82;;;11.85;;
36391;SDS011;22639;42.690;23.356;2023-06-14T06:44:13;16.20;;;10.88;;
36391;SDS011;22639;42.690;23.356;2023-06-14T06:46:39;16.00;;;10.60;;
36391;SDS011;22639;42.690;23.356;2023-06-14T06:49:06;13.07;;;10.85;;
36391;SDS011;22639;42.690;23.356;2023-06-14T06:51:31;14.25;;;12.02;;
36391;SDS011;22639;42.690;23.356;2023-06-14T06:53:56;14.27;;;12.70;;
36391;SDS011;22639;42.690;23.356;2023-06-14T06:56:22;14.80;;;13.30;;
36391;SDS011;22639;42.690;23.356;2023-06-14T06:58:48;14.98;;;12.25;;
36391;SDS011;22639;42.690;23.356;2023-06-14T07:01:13;15.02;;;13.18;;
36391;SDS011;22639;42.690;23.356;2023-06-14T07:03:39;16.20;;;14.25;;
36391;SDS011;22639;42.690;23.356;2023-06-14T07:06:04;15.30;;;13.70;;
36391;SDS011;22639;42.690;23.356;2023-06-14T07:08:29;14.95;;;13.07;;
36391;SDS011;22639;42.690;23.356;2023-06-14T07:10:55;16.92;;;14.10;;
36391;SDS011;22639;42.690;23.356;2023-06-14T07:13:20;15.15;;;13.32;;
36391;SDS011;22639;42.690;23.356;2023-06-14T07:15:46;19.00;;;14.20;;
36391;SDS011;22639;42.690;23.356;2023-06-14T07:18:11;19.08;;;14.48;;
36391;SDS011;22639;42.690;23.356;2023-06-14T07:20:37;15.57;;;13.85;;
36391;SDS011;22639;42.690;23.356;2023-06-14T07:23:03;15.70;;;13.43;;
36391;SDS011;22639;42.690;23.356;2023-06-14T07:25:28;16.35;;;13.95;;
36391;SDS011;22639;42.690;23.356;2023-06-14T07:27:54;14.57;;;12.98;;
36391;SDS011;22639;42.690;23.356;2023-06-14T07:30:19;14.82;;;13.25;;
36391;SDS011;22639;42.690;23.356;2023-06-14T07:32:46;14.85;;;13.30;;
36391;SDS011;22639;42.690;23.356;2023-06-14T07:35:11;14.93;;;12.35;;
36391;SDS011;22639;42.690;23.356;2023-06-14T07:37:37;14.98;;;13.40;;
36391;SDS011;22639;42.690;23.356;2023-06-14T07:40:02;17.85;;;14.30;;
36391;SDS011;22639;42.690;23.356;2023-06-14T07:42:32;18.08;;;13.40;;
36391;SDS011;22639;42.690;23.356;2023-06-14T07:44:57;13.32;;;11.95;;
36391;SDS011;22639;42.690;23.356;2023-06-14T07:47:22;13.63;;;12.23;;
36391;SDS011;22639;42.690;23.356;2023-06-14T07:49:48;13.10;;;11.75;;
36391;SDS011;22639;42.690;23.356;2023-06-14T07:52:13;12.90;;;11.25;;
36391;SDS011;22639;42.690;23.356;2023-06-14T07:54:38;13.00;;;11.88;;
36391;SDS011;22639;42.690;23.356;2023-06-14T07:57:04;12.48;;;11.13;;
36391;SDS011;22639;42.690;23.356;2023-06-14T07:59:29;11.90;;;10.80;;
36391;SDS011;22639;42.690;23.356;2023-06-14T08:01:54;12.27;;;11.07;;
36391;SDS011;22639;42.690;23.356;2023-06-14T08:04:20;11.40;;;10.23;;
36391;SDS011;22639;42.690;23.356;2023-06-14T08:06:46;11.13;;;10.00;;
36391;SDS011;22639;42.690;23.356;2023-06-14T08:09:12;11.43;;;10.25;;
36391;SDS011;22639;42.690;23.356;2023-06-14T08:11:38;11.27;;;10.23;;
36391;SDS011;22639;42.690;23.356;2023-06-14T08:14:03;11.15;;;10.05;;
36391;SDS011;22639;42.690;23.356;2023-06-14T08:16:29;12.10;;;10.90;;
36391;SDS011;22639;42.690;23.356;2023-06-14T08:18:54;11.05;;;9.82;;
36391;SDS011;22639;42.690;23.356;2023-06-14T08:21:21;11.55;;;10.05;;
36391;SDS011;22639;42.690;23.356;2023-06-14T08:23:47;11.43;;;9.63;;
36391;SDS011;22639;42.690;23.356;2023-06-14T08:26:13;11.18;;;8.43;;
36391;SDS011;22639;42.690;23.356;2023-06-14T08:28:38;13.77;;;10.02;;
36391;SDS011;22639;42.690;23.356;2023-06-14T08:31:03;11.90;;;10.57;;
36391;SDS011;22639;42.690;23.356;2023-06-14T08:33:29;10.27;;;8.63;;
36391;SDS011;22639;42.690;23.356;2023-06-14T08:35:54;11.07;;;9.48;;
36391;SDS011;22639;42.690;23.356;2023-06-14T08:38:19;10.82;;;9.73;;
36391;SDS011;22639;42.690;23.356;2023-06-14T08:40:45;11.07;;;9.98;;
36391;SDS011;22639;42.690;23.356;2023-06-14T08:43:12;10.65;;;9.63;;
36391;SDS011;22639;42.690;23.356;2023-06-14T08:45:38;12.25;;;8.95;;
36391;SDS011;22639;42.690;23.356;2023-06-14T08:48:03;9.50;;;8.15;;
36391;SDS011;22639;42.690;23.356;2023-06-14T08:50:29;12.25;;;9.20;;
36391;SDS011;22639;42.690;23.356;2023-06-14T08:52:58;12.00;;;8.98;;
36391;SDS011;22639;42.690;23.356;2023-06-14T08:55:28;8.98;;;8.07;;
36391;SDS011;22639;42.690;23.356;2023-06-14T08:57:55;8.68;;;7.85;;
36391;SDS011;22639;42.690;23.356;2023-06-14T09:00:22;9.60;;;8.68;;
36391;SDS011;22639;42.690;23.356;2023-06-14T09:02:49;8.82;;;8.02;;
36391;SDS011;22639;42.690;23.356;2023-06-14T09:05:15;8.52;;;7.72;;
36391;SDS011;22639;42.690;23.356;2023-06-14T09:07:43;9.57;;;8.68;;
36391;SDS011;22639;42.690;23.356;2023-06-14T09:10:10;9.00;;;8.23;;
36391;SDS011;22639;42.690;23.356;2023-06-14T09:12:35;9.73;;;8.82;;
36391;SDS011;22639;42.690;23.356;2023-06-14T09:15:01;10.65;;;9.65;;
36391;SDS011;22639;42.690;23.356;2023-06-14T09:17:31;9.85;;;8.27;;
36391;SDS011;22639;42.690;23.356;2023-06-14T09:19:57;8.52;;;7.80;;
36391;SDS011;22639;42.690;23.356;2023-06-14T09:22:23;9.93;;;9.02;;
36391;SDS011;22639;42.690;23.356;2023-06-14T09:24:49;9.05;;;8.15;;
36391;SDS011;22639;42.690;23.356;2023-06-14T09:27:15;9.40;;;8.07;;
36391;SDS011;22639;42.690;23.356;2023-06-14T09:29:40;13.38;;;8.35;;
36391;SDS011;22639;42.690;23.356;2023-06-14T09:32:05;9.52;;;8.63;;
36391;SDS011;22639;42.690;23.356;2023-06-14T09:34:31;10.75;;;7.65;;
36391;SDS011;22639;42.690;23.356;2023-06-14T09:36:57;8.93;;;8.13;;
36391;SDS011;22639;42.690;23.356;2023-06-14T09:39:23;8.38;;;7.57;;
36391;SDS011;22639;42.690;23.356;2023-06-14T09:41:50;9.15;;;8.25;;
36391;SDS011;22639;42.690;23.356;2023-06-14T09:44:15;9.50;;;8.63;;
36391;SDS011;22639;42.690;23.356;2023-06-14T09:46:42;8.52;;;7.82;;
36391;SDS011;22639;42.690;23.356;2023-06-14T09:49:08;8.70;;;7.93;;
36391;SDS011;22639;42.690;23.356;2023-06-14T09:51:33;8.77;;;7.97;;
36391;SDS011;22639;42.690;23.356;2023-06-14T09:54:01;8.88;;;8.00;;
36391;SDS011;22639;42.690;23.356;2023-06-14T09:56:30;9.00;;;8.20;;
36391;SDS011;22639;42.690;23.356;2023-06-14T09:58:56;13.32;;;7.25;;
36391;SDS011;22639;42.690;23.356;2023-06-14T10:01:22;9.30;;;7.00;;
36391;SDS011;22639;42.690;23.356;2023-06-14T10:03:49;8.32;;;7.47;;
36391;SDS011;22639;42.690;23.356;2023-06-14T10:06:15;9.75;;;8.68;;
36391;SDS011;22639;42.690;23.356;2023-06-14T10:08:41;9.48;;;8.30;;
36391;SDS011;22639;42.690;23.356;2023-06-14T10:11:07;9.00;;;8.07;;
36391;SDS011;22639;42.690;23.356;2023-06-14T10:13:32;9.32;;;8.18;;
36391;SDS011;22639;42.690;23.356;2023-06-14T10:16:15;9.07;;;8.18;;
36391;SDS011;22639;42.690;23.356;2023-06-14T10:24:03;9.25;;;8.30;;
36391;SDS011;22639;42.690;23.356;2023-06-14T10:26:30;9.60;;;7.72;;
36391;SDS011;22639;42.690;23.356;2023-06-14T10:31:48;8.60;;;7.80;;
36391;SDS011;22639;42.690;23.356;2023-06-14T10:34:12;12.60;;;10.93;;
36391;SDS011;22639;42.690;23.356;2023-06-14T10:36:45;9.07;;;8.18;;
36391;SDS011;22639;42.690;23.356;2023-06-14T10:39:13;8.48;;;7.72;;
36391;SDS011;22639;42.690;23.356;2023-06-14T10:41:40;9.05;;;8.25;;
36391;SDS011;22639;42.690;23.356;2023-06-14T10:46:41;9.65;;;8.75;;
36391;SDS011;22639;42.690;23.356;2023-06-14T10:49:10;9.20;;;8.30;;
36391;SDS011;22639;42.690;23.356;2023-06-14T10:51:39;10.38;;;9.38;;
36391;SDS011;22639;42.690;23.356;2023-06-14T10:54:13;9.45;;;8.55;;
36391;SDS011;22639;42.690;23.356;2023-06-14T10:56:45;10.48;;;9.40;;
36391;SDS011;22639;42.690;23.356;2023-06-14T10:59:11;8.98;;;8.18;;
36391;SDS011;22639;42.690;23.356;2023-06-14T11:01:37;8.98;;;8.07;;
36391;SDS011;22639;42.690;23.356;2023-06-14T11:04:11;10.73;;;9.73;;
36391;SDS011;22639;42.690;23.356;2023-06-14T11:06:49;9.88;;;8.88;;
36391;SDS011;22639;42.690;23.356;2023-06-14T11:11:59;9.48;;;8.63;;
36391;SDS011;22639;42.690;23.356;2023-06-14T11:14:25;9.32;;;7.72;;
36391;SDS011;22639;42.690;23.356;2023-06-14T11:16:51;8.25;;;7.45;;
36391;SDS011;22639;42.690;23.356;2023-06-14T11:19:16;9.55;;;7.93;;
36391;SDS011;22639;42.690;23.356;2023-06-14T11:21:42;10.45;;;8.52;;
36391;SDS011;22639;42.690;23.356;2023-06-14T11:24:11;8.48;;;7.65;;
36391;SDS011;22639;42.690;23.356;2023-06-14T11:26:37;7.95;;;7.20;;
36391;SDS011;22639;42.690;23.356;2023-06-14T11:29:02;8.10;;;7.40;;
36391;SDS011;22639;42.690;23.356;2023-06-14T11:31:28;7.13;;;6.53;;
36391;SDS011;22639;42.690;23.356;2023-06-14T11:33:54;9.77;;;7.65;;
36391;SDS011;22639;42.690;23.356;2023-06-14T11:36:20;8.18;;;7.38;;
36391;SDS011;22639;42.690;23.356;2023-06-14T11:38:45;10.60;;;7.72;;
36391;SDS011;22639;42.690;23.356;2023-06-14T11:41:11;7.78;;;7.07;;
36391;SDS011;22639;42.690;23.356;2023-06-14T11:43:37;8.50;;;7.60;;
36391;SDS011;22639;42.690;23.356;2023-06-14T11:46:02;8.07;;;7.38;;
36391;SDS011;22639;42.690;23.356;2023-06-14T11:48:40;8.35;;;7.50;;
36391;SDS011;22639;42.690;23.356;2023-06-14T11:51:06;8.65;;;7.22;;
36391;SDS011;22639;42.690;23.356;2023-06-14T11:53:31;8.95;;;8.05;;
36391;SDS011;22639;42.690;23.356;2023-06-14T11:55:57;11.25;;;7.60;;
36391;SDS011;22639;42.690;23.356;2023-06-14T11:58:22;8.13;;;7.38;;
36391;SDS011;22639;42.690;23.356;2023-06-14T12:00:51;9.30;;;7.68;;
36391;SDS011;22639;42.690;23.356;2023-06-14T12:03:17;8.68;;;7.88;;
36391;SDS011;22639;42.690;23.356;2023-06-14T12:05:42;8.30;;;7.57;;
36391;SDS011;22639;42.690;23.356;2023-06-14T12:08:08;8.35;;;7.63;;
36391;SDS011;22639;42.690;23.356;2023-06-14T12:10:40;7.72;;;6.93;;
36391;SDS011;22639;42.690;23.356;2023-06-14T12:13:08;9.13;;;7.20;;
36391;SDS011;22639;42.690;23.356;2023-06-14T12:15:34;7.32;;;6.63;;
36391;SDS011;22639;42.690;23.356;2023-06-14T12:18:00;7.28;;;6.60;;
36391;SDS011;22639;42.690;23.356;2023-06-14T12:20:28;8.05;;;6.78;;
36391;SDS011;22639;42.690;23.356;2023-06-14T12:22:55;6.88;;;6.28;;
36391;SDS011;22639;42.690;23.356;2023-06-14T12:27:52;8.73;;;7.03;;
36391;SDS011;22639;42.690;23.356;2023-06-14T12:30:17;7.15;;;6.45;;
36391;SDS011;22639;42.690;23.356;2023-06-14T12:32:42;6.25;;;5.75;;
36391;SDS011;22639;42.690;23.356;2023-06-14T12:35:09;7.93;;;6.43;;
36391;SDS011;22639;42.690;23.356;2023-06-14T12:37:34;6.50;;;5.90;;
36391;SDS011;22639;42.690;23.356;2023-06-14T12:39:59;7.03;;;6.32;;
36391;SDS011;22639;42.690;23.356;2023-06-14T12:42:24;6.50;;;5.90;;
36391;SDS011;22639;42.690;23.356;2023-06-14T12:44:50;7.60;;;6.60;;
36391;SDS011;22639;42.690;23.356;2023-06-14T12:47:15;6.32;;;5.70;;
36391;SDS011;22639;42.690;23.356;2023-06-14T12:49:41;6.57;;;5.85;;
36391;SDS011;22639;42.690;23.356;2023-06-14T12:52:07;6.22;;;5.63;;
36391;SDS011;22639;42.690;23.356;2023-06-14T12:54:32;5.78;;;5.15;;
36391;SDS011;22639;42.690;23.356;2023-06-14T12:56:59;6.60;;;5.93;;
36391;SDS011;22639;42.690;23.356;2023-06-14T12:59:24;7.05;;;5.38;;
36391;SDS011;22639;42.690;23.356;2023-06-14T13:01:50;7.05;;;5.93;;
36391;SDS011;22639;42.690;23.356;2023-06-14T13:04:15;6.60;;;5.53;;
36391;SDS011;22639;42.690;23.356;2023-06-14T13:06:43;6.50;;;5.90;;
36391;SDS011;22639;42.690;23.356;2023-06-14T13:09:09;5.90;;;5.40;;
36391;SDS011;22639;42.690;23.356;2023-06-14T13:11:34;6.05;;;5.53;;
36391;SDS011;22639;42.690;23.356;2023-06-14T13:13:59;5.60;;;5.10;;
36391;SDS011;22639;42.690;23.356;2023-06-14T13:16:24;4.80;;;4.40;;
36391;SDS011;22639;42.690;23.356;2023-06-14T13:18:50;6.88;;;6.22;;
36391;SDS011;22639;42.690;23.356;2023-06-14T13:21:15;7.22;;;6.50;;
36391;SDS011;22639;42.690;23.356;2023-06-14T13:23:40;7.65;;;6.22;;
36391;SDS011;22639;42.690;23.356;2023-06-14T13:26:06;7.75;;;7.00;;
36391;SDS011;22639;42.690;23.356;2023-06-14T13:28:31;7.43;;;6.68;;
36391;SDS011;22639;42.690;23.356;2023-06-14T13:30:57;10.52;;;7.60;;
36391;SDS011;22639;42.690;23.356;2023-06-14T13:33:23;7.10;;;5.70;;
36391;SDS011;22639;42.690;23.356;2023-06-14T13:35:49;8.05;;;7.03;;
36391;SDS011;22639;42.690;23.356;2023-06-14T13:38:17;8.52;;;7.25;;
36391;SDS011;22639;42.690;23.356;2023-06-14T13:40:43;8.10;;;7.30;;
36391;SDS011;22639;42.690;23.356;2023-06-14T13:43:08;10.32;;;8.00;;
36391;SDS011;22639;42.690;23.356;2023-06-14T13:45:33;11.73;;;8.52;;
36391;SDS011;22639;42.690;23.356;2023-06-14T13:47:59;8.75;;;7.85;;
36391;SDS011;22639;42.690;23.356;2023-06-14T13:50:24;8.90;;;8.00;;
36391;SDS011;22639;42.690;23.356;2023-06-14T13:52:50;8.35;;;7.45;;
36391;SDS011;22639;42.690;23.356;2023-06-14T13:55:15;9.48;;;8.32;;
36391;SDS011;22639;42.690;23.356;2023-06-14T13:57:40;10.93;;;9.82;;
36391;SDS011;22639;42.690;23.356;2023-06-14T14:00:06;9.88;;;8.18;;
36391;SDS011;22639;42.690;23.356;2023-06-14T14:02:33;10.88;;;8.95;;
36391;SDS011;22639;42.690;23.356;2023-06-14T14:04:58;11.07;;;9.00;;
36391;SDS011;22639;42.690;23.356;2023-06-14T14:07:24;15.80;;;7.95;;
36391;SDS011;22639;42.690;23.356;2023-06-14T14:09:49;10.55;;;8.73;;
36391;SDS011;22639;42.690;23.356;2023-06-14T14:12:15;10.55;;;8.95;;
36391;SDS011;22639;42.690;23.356;2023-06-14T14:14:40;13.32;;;8.30;;
36391;SDS011;22639;42.690;23.356;2023-06-14T14:17:06;9.77;;;8.77;;
36391;SDS011;22639;42.690;23.356;2023-06-14T14:19:31;13.65;;;11.20;;
36391;SDS011;22639;42.690;23.356;2023-06-14T14:21:57;9.88;;;8.88;;
36391;SDS011;22639;42.690;23.356;2023-06-14T14:24:22;9.63;;;8.38;;
36391;SDS011;22639;42.690;23.356;2023-06-14T14:26:48;9.18;;;8.13;;
36391;SDS011;22639;42.690;23.356;2023-06-14T14:29:14;11.30;;;8.43;;
36391;SDS011;22639;42.690;23.356;2023-06-14T14:31:40;9.50;;;7.13;;
36391;SDS011;22639;42.690;23.356;2023-06-14T14:34:05;7.68;;;6.88;;
36391;SDS011;22639;42.690;23.356;2023-06-14T14:36:30;8.43;;;7.43;;
36391;SDS011;22639;42.690;23.356;2023-06-14T14:38:56;7.75;;;6.28;;
36391;SDS011;22639;42.690;23.356;2023-06-14T14:41:21;8.77;;;7.57;;
36391;SDS011;22639;42.690;23.356;2023-06-14T14:43:46;8.95;;;6.47;;